Time;durP1;ratioP1;P1;durP2;ratioP2;P2;SDS_P1;SDS_P2;PMS_P1;PMS_P2;Temp;Humidity;BMP_temperature;BMP_pressure;BME280_temperature;BME280_humidity;BME280_pressure;Samples;Min_cycle;Max_cycle;Signal;HPM_P1;HPM_P2
2024/02/15 00:28:20;;;;;;;1.10;1.10;;;8.20;99.90;;;;;;5078288;28;20197;-82
2024/02/15 00:30:48;;;;;;;1.33;1.33;;;8.20;99.90;;;;;;5072139;28;20204;-81
2024/02/15 00:33:15;;;;;;;1.10;1.10;;;8.10;99.90;;;;;;5075063;28;20207;-84
2024/02/15 00:35:43;;;;;;;0.82;0.82;;;8.10;99.90;;;;;;5074336;28;20212;-84
2024/02/15 00:38:10;;;;;;;2.08;1.98;;;8.10;99.90;;;;;;5089800;28;20424;-81
2024/02/15 00:40:37;;;;;;;2.60;2.40;;;8.10;99.90;;;;;;5061329;28;20278;-80
2024/02/15 00:43:05;;;;;;;1.70;1.70;;;8.20;99.90;;;;;;5088331;28;20597;-80
2024/02/15 00:45:32;;;;;;;0.80;0.80;;;8.10;99.90;;;;;;5080338;28;20246;-81
2024/02/15 00:47:59;;;;;;;1.92;1.83;;;8.00;99.90;;;;;;5082120;28;20292;-80
2024/02/15 00:50:26;;;;;;;0.70;0.70;;;8.00;99.90;;;;;;5064287;28;20199;-81
2024/02/15 00:52:54;;;;;;;1.55;1.55;;;8.00;99.90;;;;;;5083848;28;20234;-83
2024/02/15 00:55:21;;;;;;;2.42;2.33;;;8.00;99.90;;;;;;5081045;28;20257;-83
2024/02/15 00:57:48;;;;;;;35.38;4.72;;;8.20;99.90;;;;;;5079064;28;20233;-83
2024/02/15 01:00:15;;;;;;;2.05;1.95;;;8.00;99.90;;;;;;5073797;28;20269;-82
2024/02/15 01:02:42;;;;;;;1.88;1.77;;;8.00;99.90;;;;;;5075735;28;20248;-82
2024/02/15 01:05:09;;;;;;;1.35;1.35;;;8.00;99.90;;;;;;5078587;28;20480;-82
2024/02/15 01:07:37;;;;;;;2.83;2.30;;;8.10;99.90;;;;;;5069125;28;20211;-83
2024/02/15 01:10:05;;;;;;;1.10;1.08;;;8.00;99.90;;;;;;5081036;28;20245;-82
2024/02/15 01:12:33;;;;;;;3.20;3.00;;;8.00;99.90;;;;;;5093269;28;20281;-82
2024/02/15 01:15:00;;;;;;;2.80;2.60;;;8.10;99.90;;;;;;5084649;28;20195;-82
2024/02/15 01:17:27;;;;;;;3.97;3.60;;;8.10;99.90;;;;;;5091812;28;20213;-80
2024/02/15 01:19:55;;;;;;;0.60;0.60;;;8.10;99.90;;;;;;5099288;28;20213;-82
2024/02/15 01:22:24;;;;;;;4.25;2.45;;;8.10;99.90;;;;;;5079420;28;20225;-81
2024/02/15 01:24:52;;;;;;;2.63;2.53;;;8.20;99.90;;;;;;5082555;28;20260;-83
2024/02/15 01:27:19;;;;;;;1.25;1.25;;;8.10;99.90;;;;;;5086001;28;20206;-81
2024/02/15 01:29:46;;;;;;;3.00;2.85;;;8.10;99.90;;;;;;5102330;28;20221;-81
2024/02/15 01:32:13;;;;;;;1.52;1.48;;;8.00;99.90;;;;;;5087018;28;20211;-81
2024/02/15 01:34:41;;;;;;;2.00;1.90;;;8.00;99.90;;;;;;5079793;28;20214;-81
2024/02/15 01:37:09;;;;;;;1.60;1.55;;;8.20;99.90;;;;;;5083843;28;20207;-80
2024/02/15 01:39:36;;;;;;;1.40;1.40;;;8.10;99.90;;;;;;5086417;28;20229;-81
2024/02/15 01:42:03;;;;;;;0.70;0.70;;;8.00;99.90;;;;;;5090009;28;20266;-82
2024/02/15 01:44:30;;;;;;;3.10;2.28;;;8.00;99.90;;;;;;5078019;28;20257;-82
2024/02/15 01:46:58;;;;;;;3.50;3.20;;;8.00;99.90;;;;;;5086486;28;20245;-81
2024/02/15 01:49:28;;;;;;;6.18;1.45;;;8.00;99.90;;;;;;5084280;28;20226;-82
2024/02/15 01:51:57;;;;;;;1.00;0.98;;;8.00;99.90;;;;;;5071786;28;20210;-83
2024/02/15 01:54:25;;;;;;;0.80;0.80;;;8.00;99.90;;;;;;5085977;28;20637;-82
2024/02/15 01:56:53;;;;;;;2.05;1.95;;;8.10;99.90;;;;;;5070335;28;20234;-82
2024/02/15 01:59:23;;;;;;;2.30;2.10;;;8.00;99.90;;;;;;5095750;28;20679;-82
2024/02/15 02:01:50;;;;;;;2.17;2.08;;;8.00;99.90;;;;;;5078013;28;20228;-82
2024/02/15 02:04:17;;;;;;;1.27;1.25;;;8.00;99.90;;;;;;5088155;28;20235;-82
2024/02/15 02:06:44;;;;;;;5.03;4.57;;;8.00;99.90;;;;;;5077862;28;20200;-81
2024/02/15 02:09:15;;;;;;;4.38;3.58;;;8.00;99.90;;;;;;5082988;28;20206;-82
2024/02/15 02:11:46;;;;;;;1.52;1.52;;;8.00;99.90;;;;;;5081272;28;20230;-81
2024/02/15 02:14:13;;;;;;;2.38;2.28;;;8.00;99.90;;;;;;5072800;28;20556;-81
2024/02/15 02:16:41;;;;;;;4.30;3.63;;;8.00;99.90;;;;;;5081920;28;20222;-81
2024/02/15 02:19:08;;;;;;;3.42;3.22;;;8.00;99.90;;;;;;5076678;28;20245;-82
2024/02/15 02:21:39;;;;;;;2.50;2.40;;;8.10;99.90;;;;;;5093295;28;20241;-82
2024/02/15 02:24:21;;;;;;;2.80;2.58;;;8.00;99.90;;;;;;5079727;28;20226;-81
2024/02/15 02:26:53;;;;;;;1.52;1.52;;;8.00;99.90;;;;;;5092065;28;20204;-82
2024/02/15 02:29:21;;;;;;;2.15;2.05;;;8.00;99.90;;;;;;5079985;28;20199;-81
2024/02/15 02:31:48;;;;;;;3.80;1.27;;;8.00;99.90;;;;;;5086383;28;20209;-82
2024/02/15 02:34:15;;;;;;;1.80;1.70;;;8.10;99.90;;;;;;5095077;28;20242;-81
2024/02/15 02:36:47;;;;;;;1.85;1.75;;;8.20;99.90;;;;;;5073182;28;20213;-80
2024/02/15 02:39:14;;;;;;;0.90;0.90;;;8.00;99.90;;;;;;5088710;28;20528;-81
2024/02/15 02:41:42;;;;;;;2.17;2.08;;;8.10;99.90;;;;;;5079368;28;20214;-81
2024/02/15 02:44:09;;;;;;;2.38;2.28;;;8.00;99.90;;;;;;5093996;28;20214;-81
2024/02/15 02:46:36;;;;;;;1.88;1.80;;;8.00;99.90;;;;;;5088768;28;20241;-80
2024/02/15 02:49:04;;;;;;;4.03;3.30;;;8.00;99.90;;;;;;5096294;28;20217;-82
2024/02/15 02:51:31;;;;;;;11.48;2.42;;;8.00;99.90;;;;;;5085631;28;20248;-82
2024/02/15 02:53:58;;;;;;;3.38;2.13;;;8.00;99.90;;;;;;5066292;28;20233;-82
2024/02/15 02:56:25;;;;;;;1.27;1.27;;;8.00;99.90;;;;;;5077480;28;20225;-82
2024/02/15 02:58:52;;;;;;;2.65;2.40;;;7.80;99.90;;;;;;5072604;28;20269;-83
2024/02/15 03:01:24;;;;;;;1.02;1.02;;;7.90;99.90;;;;;;5094897;28;20209;-83
2024/02/15 03:03:55;;;;;;;0.90;0.90;;;7.90;99.90;;;;;;5084188;28;20219;-82
2024/02/15 03:06:24;;;;;;;2.35;2.25;;;7.90;99.90;;;;;;5078029;28;20702;-83
2024/02/15 03:08:54;;;;;;;3.17;2.92;;;8.00;99.90;;;;;;5075507;28;20202;-82
2024/02/15 03:11:23;;;;;;;2.85;2.65;;;8.00;99.90;;;;;;5091368;28;20208;-80
2024/02/15 03:13:50;;;;;;;1.98;1.88;;;8.00;99.90;;;;;;5082750;28;20374;-81
2024/02/15 03:16:16;;;;;;;0.95;0.95;;;8.00;99.90;;;;;;5088164;28;20266;-81
2024/02/15 03:18:44;;;;;;;4.85;1.98;;;8.10;99.90;;;;;;5088282;28;20405;-81
2024/02/15 03:21:11;;;;;;;0.73;0.73;;;8.00;99.90;;;;;;5087716;28;20209;-81
2024/02/15 03:23:38;;;;;;;1.40;1.30;;;8.00;99.90;;;;;;5090718;28;20411;-82
2024/02/15 03:26:09;;;;;;;2.40;2.25;;;8.00;99.90;;;;;;5094074;28;20451;-81
2024/02/15 03:28:37;;;;;;;0.70;0.70;;;8.00;99.90;;;;;;5094190;28;20207;-82
2024/02/15 03:31:04;;;;;;;3.58;3.28;;;8.10;99.90;;;;;;5093540;28;20496;-82
2024/02/15 03:33:34;;;;;;;2.58;2.47;;;8.10;99.90;;;;;;5102600;28;20226;-82
2024/02/15 03:36:03;;;;;;;1.50;1.45;;;8.00;99.90;;;;;;5093411;28;20222;-81
2024/02/15 03:38:31;;;;;;;0.60;0.60;;;8.10;99.90;;;;;;5097938;28;20243;-82
2024/02/15 03:40:58;;;;;;;6.55;2.72;;;8.10;99.90;;;;;;5091567;28;20226;-81
2024/02/15 03:43:26;;;;;;;2.42;2.22;;;8.10;99.90;;;;;;5099781;28;20222;-81
2024/02/15 03:45:54;;;;;;;0.95;0.95;;;8.10;99.90;;;;;;5085505;28;20291;-81
2024/02/15 03:48:21;;;;;;;1.00;1.00;;;8.10;99.90;;;;;;5083211;28;20294;-82
2024/02/15 03:50:48;;;;;;;1.27;1.25;;;8.10;99.90;;;;;;5094591;28;20213;-82
2024/02/15 03:53:16;;;;;;;2.30;2.20;;;8.10;99.90;;;;;;5075681;28;20203;-82
2024/02/15 03:55:43;;;;;;;1.20;1.20;;;8.10;99.90;;;;;;5081270;28;20211;-82
2024/02/15 03:58:12;;;;;;;0.50;0.50;;;8.10;99.90;;;;;;5084429;28;20266;-81
2024/02/15 04:00:40;;;;;;;1.27;1.27;;;8.10;99.90;;;;;;5096311;28;20301;-82
2024/02/15 04:03:07;;;;;;;2.65;2.45;;;8.00;99.90;;;;;;5075088;28;20540;-82
2024/02/15 04:05:34;;;;;;;2.13;1.95;;;8.20;99.90;;;;;;5088880;28;20252;-83
2024/02/15 04:08:03;;;;;;;1.38;1.27;;;8.30;99.90;;;;;;5089838;28;20200;-81
2024/02/15 04:10:29;;;;;;;2.92;2.72;;;8.10;99.90;;;;;;5087234;28;20229;-82
2024/02/15 04:12:58;;;;;;;2.35;2.25;;;8.10;99.90;;;;;;5096586;28;20206;-82
2024/02/15 04:15:25;;;;;;;0.95;0.95;;;8.20;99.90;;;;;;5097217;28;20226;-84
2024/02/15 04:17:56;;;;;;;1.35;1.35;;;8.10;99.90;;;;;;5078140;28;20187;-82
2024/02/15 04:20:23;;;;;;;2.60;2.50;;;8.10;99.90;;;;;;5088752;28;20226;-82
2024/02/15 04:22:50;;;;;;;2.03;1.92;;;8.20;99.90;;;;;;5090780;28;20274;-81
2024/02/15 04:25:18;;;;;;;2.72;2.58;;;8.10;99.90;;;;;;5085266;28;20415;-83
2024/02/15 04:27:47;;;;;;;1.33;1.30;;;8.20;99.90;;;;;;5095800;28;20258;-82
2024/02/15 04:30:15;;;;;;;0.93;0.93;;;8.10;99.90;;;;;;5087728;28;20195;-81
2024/02/15 04:32:43;;;;;;;0.95;0.95;;;8.10;99.90;;;;;;5084956;28;20302;-82
2024/02/15 04:35:12;;;;;;;1.38;1.35;;;8.10;99.90;;;;;;5087927;28;20565;-82
2024/02/15 04:37:41;;;;;;;1.60;1.50;;;8.10;99.90;;;;;;5079866;28;20207;-82
2024/02/15 04:40:09;;;;;;;1.67;1.67;;;8.00;99.90;;;;;;5090821;28;20211;-81
2024/02/15 04:42:39;;;;;;;2.25;2.05;;;8.00;99.90;;;;;;5084466;28;20571;-82
2024/02/15 04:45:08;;;;;;;0.95;0.95;;;8.10;99.90;;;;;;5082942;28;20218;-83
2024/02/15 04:47:35;;;;;;;3.33;3.13;;;8.00;99.90;;;;;;5086239;28;20206;-83
2024/02/15 04:50:05;;;;;;;1.33;1.33;;;8.00;99.90;;;;;;5056016;28;20246;-83
2024/02/15 04:52:33;;;;;;;1.55;1.38;;;8.00;99.90;;;;;;5089192;28;20269;-83
2024/02/15 04:55:01;;;;;;;2.00;1.90;;;8.00;99.90;;;;;;5089756;28;20244;-81
2024/02/15 04:57:28;;;;;;;1.20;1.20;;;8.00;99.90;;;;;;5084011;28;20563;-81
2024/02/15 04:59:55;;;;;;;3.85;3.65;;;8.00;99.90;;;;;;5081626;28;20209;-82
2024/02/15 05:02:24;;;;;;;0.90;0.90;;;7.90;99.90;;;;;;5090081;28;20371;-82
2024/02/15 05:04:56;;;;;;;0.80;0.80;;;8.00;99.90;;;;;;5072957;28;20270;-82
2024/02/15 05:07:23;;;;;;;1.65;1.55;;;7.90;99.90;;;;;;5089272;28;20507;-82
2024/02/15 05:09:52;;;;;;;2.20;2.10;;;7.90;99.90;;;;;;5081065;28;20210;-82
2024/02/15 05:12:27;;;;;;;1.17;1.17;;;7.90;99.90;;;;;;5083901;28;20213;-82
2024/02/15 05:14:54;;;;;;;2.15;2.05;;;7.90;99.90;;;;;;5092280;28;20230;-82
2024/02/15 05:17:21;;;;;;;0.75;0.75;;;7.80;99.90;;;;;;5092086;28;20206;-82
2024/02/15 05:19:49;;;;;;;1.50;1.40;;;7.80;99.90;;;;;;5080366;28;20215;-82
2024/02/15 05:22:18;;;;;;;1.38;1.27;;;7.70;99.90;;;;;;5091222;28;20291;-82
2024/02/15 05:24:45;;;;;;;1.23;1.23;;;7.80;99.90;;;;;;5089902;28;20223;-81
2024/02/15 05:27:12;;;;;;;1.63;1.55;;;7.70;99.90;;;;;;5076937;28;20709;-82
2024/02/15 05:29:43;;;;;;;1.45;1.35;;;7.60;99.90;;;;;;5075866;28;20203;-82
2024/02/15 05:32:10;;;;;;;3.53;3.08;;;7.60;99.90;;;;;;5080717;28;20240;-82
2024/02/15 05:34:39;;;;;;;1.65;1.55;;;7.70;99.90;;;;;;5081894;28;20222;-81
2024/02/15 05:37:07;;;;;;;1.42;1.33;;;7.60;99.90;;;;;;5066032;28;20207;-82
2024/02/15 05:39:34;;;;;;;2.28;2.17;;;7.60;99.90;;;;;;5077588;28;20208;-81
2024/02/15 05:42:04;;;;;;;1.95;1.85;;;7.50;99.90;;;;;;5077834;28;20240;-82
2024/02/15 05:44:31;;;;;;;0.68;0.68;;;7.50;99.90;;;;;;5084973;28;20252;-82
2024/02/15 05:46:58;;;;;;;0.95;0.95;;;7.50;99.90;;;;;;5062484;28;20249;-82
2024/02/15 05:49:26;;;;;;;1.73;1.63;;;7.50;99.90;;;;;;5072700;28;20279;-82
2024/02/15 05:51:56;;;;;;;2.58;2.38;;;7.60;99.90;;;;;;5064224;28;20183;-83
2024/02/15 05:54:23;;;;;;;2.05;1.95;;;7.60;99.90;;;;;;5080316;28;20195;-83
2024/02/15 05:56:53;;;;;;;2.00;1.90;;;7.70;99.90;;;;;;5107917;28;20361;-80
2024/02/15 05:59:20;;;;;;;2.08;1.88;;;7.60;99.90;;;;;;5097388;28;20191;-84
2024/02/15 06:01:48;;;;;;;2.17;2.08;;;7.60;99.90;;;;;;5069912;28;20199;-83
2024/02/15 06:04:16;;;;;;;2.22;1.52;;;7.60;99.90;;;;;;5063226;28;20224;-82
2024/02/15 06:06:48;;;;;;;1.20;1.20;;;7.60;99.90;;;;;;5057614;28;20206;-81
2024/02/15 06:09:17;;;;;;;1.33;1.33;;;7.60;99.90;;;;;;5084032;28;20699;-82
2024/02/15 06:11:45;;;;;;;2.22;2.13;;;7.70;99.90;;;;;;5060109;28;20226;-82
2024/02/15 06:14:13;;;;;;;1.40;1.30;;;7.60;99.90;;;;;;5070715;28;20202;-82
2024/02/15 06:16:44;;;;;;;0.85;0.85;;;7.70;99.90;;;;;;5060603;28;20258;-82
2024/02/15 06:19:11;;;;;;;1.77;1.67;;;7.70;99.90;;;;;;5085985;28;20214;-83
2024/02/15 06:21:39;;;;;;;0.93;0.93;;;7.70;99.90;;;;;;5093446;28;20282;-83
2024/02/15 06:24:07;;;;;;;1.70;1.70;;;7.80;99.90;;;;;;5075188;28;20198;-81
2024/02/15 06:26:34;;;;;;;1.48;1.33;;;7.80;99.90;;;;;;5082289;28;20215;-82
2024/02/15 06:40:23;;;;;;;0.50;0.50;;;8.00;99.90;;;;;;5081991;28;20270;-82
2024/02/15 06:42:50;;;;;;;1.52;1.45;;;8.00;99.90;;;;;;5076672;28;20482;-82
2024/02/15 06:45:19;;;;;;;0.60;0.60;;;8.00;99.90;;;;;;5093988;28;20233;-83
2024/02/15 06:47:47;;;;;;;3.08;2.95;;;7.90;99.90;;;;;;5081955;28;20507;-83
2024/02/15 06:50:14;;;;;;;1.75;1.65;;;8.10;99.90;;;;;;5076844;28;20221;-81
2024/02/15 06:52:41;;;;;;;0.88;0.88;;;8.10;99.90;;;;;;5097025;28;20195;-83
2024/02/15 06:55:11;;;;;;;1.73;1.63;;;8.20;99.90;;;;;;5079881;28;20231;-82
2024/02/15 06:57:41;;;;;;;3.33;2.65;;;8.20;99.90;;;;;;5081099;28;20206;-81
2024/02/15 07:00:14;;;;;;;1.20;1.20;;;8.30;99.90;;;;;;5089118;28;20195;-81
2024/02/15 07:02:44;;;;;;;1.55;1.45;;;8.20;99.90;;;;;;5090466;28;20551;-81
2024/02/15 07:05:11;;;;;;;1.88;1.77;;;8.30;99.90;;;;;;5082690;28;20253;-82
2024/02/15 07:07:39;;;;;;;0.93;0.93;;;8.30;99.90;;;;;;5095461;28;20346;-81
2024/02/15 07:10:08;;;;;;;0.90;0.90;;;8.40;99.90;;;;;;5083225;28;20222;-81
2024/02/15 07:12:36;;;;;;;1.73;1.63;;;8.40;99.90;;;;;;5090078;28;20203;-81
2024/02/15 07:15:08;;;;;;;0.95;0.95;;;8.40;99.90;;;;;;5059509;28;20230;-81
2024/02/15 07:17:39;;;;;;;0.75;0.75;;;8.50;99.90;;;;;;5071511;28;20602;-82
2024/02/15 07:20:14;;;;;;;2.90;2.80;;;8.50;99.90;;;;;;5083082;28;20223;-82
2024/02/15 07:22:42;;;;;;;0.60;0.60;;;8.60;99.90;;;;;;5089350;28;20202;-81
2024/02/15 07:25:10;;;;;;;1.08;1.08;;;8.70;99.90;;;;;;5081231;28;20268;-82
2024/02/15 07:27:37;;;;;;;1.95;1.85;;;8.80;99.90;;;;;;5071548;28;20203;-81
2024/02/15 07:30:05;;;;;;;1.08;1.08;;;9.00;99.90;;;;;;5092794;28;20214;-81
2024/02/15 07:32:34;;;;;;;2.83;2.72;;;9.00;99.90;;;;;;5067250;28;20199;-81
2024/02/15 07:35:02;;;;;;;2.42;2.33;;;9.10;99.90;;;;;;5087403;28;20386;-81
2024/02/15 07:37:30;;;;;;;1.90;1.80;;;9.20;99.90;;;;;;5098553;28;20214;-82
2024/02/15 07:39:57;;;;;;;2.30;2.20;;;9.30;99.90;;;;;;5093278;28;20222;-83
2024/02/15 07:42:25;;;;;;;1.75;1.65;;;9.50;99.90;;;;;;5085589;28;20514;-82
2024/02/15 07:44:53;;;;;;;4.10;3.72;;;9.20;99.90;;;;;;5083480;28;20218;-83
2024/02/15 07:47:23;;;;;;;1.55;1.50;;;9.40;99.90;;;;;;5072439;28;20199;-82
2024/02/15 07:49:51;;;;;;;1.35;1.35;;;9.10;99.90;;;;;;5094162;28;20263;-82
2024/02/15 07:52:18;;;;;;;1.58;1.30;;;9.20;99.90;;;;;;5074568;28;20548;-81
2024/02/15 07:54:46;;;;;;;2.25;2.15;;;9.30;99.90;;;;;;5087907;28;20226;-81
2024/02/15 07:57:14;;;;;;;1.60;1.50;;;9.40;99.90;;;;;;5092527;28;20261;-81
2024/02/15 07:59:42;;;;;;;0.77;0.77;;;9.30;99.90;;;;;;5084005;28;20195;-82
2024/02/15 08:02:09;;;;;;;1.25;1.25;;;9.30;99.90;;;;;;5083874;28;20203;-82
2024/02/15 08:04:40;;;;;;;1.35;1.35;;;9.40;99.90;;;;;;5086262;28;20252;-82
2024/02/15 08:07:10;;;;;;;3.70;3.35;;;9.40;99.90;;;;;;5100230;28;20476;-82
2024/02/15 08:09:38;;;;;;;0.98;0.98;;;9.40;99.90;;;;;;5069443;28;20199;-82
2024/02/15 08:12:09;;;;;;;1.15;1.15;;;9.50;99.90;;;;;;5088812;28;20225;-82
2024/02/15 08:14:36;;;;;;;1.30;1.23;;;9.60;99.90;;;;;;5092104;28;20234;-81
2024/02/15 08:17:03;;;;;;;1.48;1.48;;;9.60;99.90;;;;;;5089958;28;20195;-81
2024/02/15 08:19:30;;;;;;;2.05;1.95;;;9.60;99.90;;;;;;5073016;28;20199;-82
2024/02/15 08:22:04;;;;;;;1.98;1.88;;;9.70;99.90;;;;;;5092850;28;20292;-81
2024/02/15 08:24:31;;;;;;;3.70;3.35;;;9.70;99.90;;;;;;5102527;28;20257;-83
2024/02/15 08:26:59;;;;;;;1.35;1.35;;;9.70;99.90;;;;;;5078705;28;20195;-83
2024/02/15 08:29:27;;;;;;;1.17;1.17;;;9.80;99.90;;;;;;5085714;28;20218;-83
2024/02/15 08:31:54;;;;;;;2.10;2.00;;;9.80;99.90;;;;;;5088731;28;20195;-81
2024/02/15 08:34:21;;;;;;;1.08;1.08;;;9.80;99.90;;;;;;5093744;28;20214;-81
2024/02/15 08:36:49;;;;;;;4.07;2.63;;;10.00;99.90;;;;;;5094157;28;20228;-81
2024/02/15 08:39:17;;;;;;;1.42;1.33;;;9.90;99.90;;;;;;5093200;28;20199;-82
2024/02/15 08:41:44;;;;;;;1.73;1.63;;;9.90;99.90;;;;;;5092951;28;20198;-81
2024/02/15 08:44:15;;;;;;;2.08;2.00;;;10.10;99.90;;;;;;5084637;28;20199;-82
2024/02/15 08:46:42;;;;;;;2.28;2.08;;;10.10;99.90;;;;;;5093092;28;20226;-81
2024/02/15 08:49:12;;;;;;;1.30;1.27;;;10.10;99.90;;;;;;5087114;28;20231;-80
2024/02/15 08:51:39;;;;;;;3.38;3.28;;;10.10;99.90;;;;;;5093425;28;20222;-81
2024/02/15 08:54:07;;;;;;;3.67;3.33;;;10.20;99.90;;;;;;5103826;28;20227;-82
2024/02/15 08:56:35;;;;;;;1.23;1.23;;;10.30;99.90;;;;;;5076846;28;20211;-83
2024/02/15 08:59:03;;;;;;;0.70;0.70;;;10.50;99.90;;;;;;5088484;28;20202;-82
2024/02/15 09:01:30;;;;;;;4.90;3.08;;;10.60;99.90;;;;;;5101775;28;20207;-82
2024/02/15 09:03:58;;;;;;;2.65;1.30;;;10.90;99.90;;;;;;5072380;28;20199;-84
2024/02/15 09:06:26;;;;;;;1.00;1.00;;;11.00;99.90;;;;;;5104975;28;20230;-83
2024/02/15 09:08:52;;;;;;;1.70;1.60;;;11.20;99.90;;;;;;5094056;28;20610;-82
2024/02/15 09:11:20;;;;;;;1.33;1.23;;;11.30;99.90;;;;;;5091994;28;20232;-82
2024/02/15 09:13:49;;;;;;;1.33;1.27;;;11.30;99.90;;;;;;5067464;28;20403;-81
2024/02/15 09:16:16;;;;;;;3.03;1.23;;;11.50;99.90;;;;;;5098562;28;20256;-83
2024/02/15 09:18:45;;;;;;;0.83;0.83;;;11.60;99.90;;;;;;5093949;28;20671;-81
2024/02/15 09:21:14;;;;;;;1.63;1.57;;;11.70;99.90;;;;;;5088464;28;20438;-81
2024/02/15 09:23:41;;;;;;;1.00;1.00;;;11.70;99.90;;;;;;5065976;28;20611;-81
2024/02/15 09:26:09;;;;;;;2.85;2.65;;;11.80;99.90;;;;;;5088219;28;20485;-80
2024/02/15 09:28:37;;;;;;;0.83;0.83;;;11.80;99.90;;;;;;5095037;28;20201;-80
2024/02/15 09:31:04;;;;;;;1.17;1.17;;;11.90;99.90;;;;;;5066442;28;20470;-81
2024/02/15 09:33:31;;;;;;;3.43;3.23;;;11.90;99.90;;;;;;5095576;28;20503;-81
2024/02/15 09:35:58;;;;;;;1.67;1.57;;;11.90;99.90;;;;;;5095930;28;20441;-81
2024/02/15 09:38:25;;;;;;;1.63;1.53;;;11.90;99.90;;;;;;5088069;28;20413;-81
2024/02/15 09:40:52;;;;;;;1.80;1.70;;;11.80;99.90;;;;;;5080978;28;20433;-81
2024/02/15 09:43:19;;;;;;;2.53;2.42;;;11.70;99.90;;;;;;5093294;28;20452;-80
2024/02/15 09:45:49;;;;;;;1.67;1.57;;;11.70;99.90;;;;;;5085456;28;20263;-81
2024/02/15 09:48:17;;;;;;;1.00;1.00;;;11.70;99.90;;;;;;5096255;28;20782;-81
2024/02/15 09:50:46;;;;;;;2.33;1.93;;;11.60;99.90;;;;;;5108024;28;20445;-80
2024/02/15 09:53:15;;;;;;;0.60;0.60;;;11.80;99.90;;;;;;5102898;28;20769;-80
2024/02/15 09:55:43;;;;;;;0.77;0.77;;;11.70;99.90;;;;;;5086685;28;20212;-81
2024/02/15 09:58:12;;;;;;;2.70;2.60;;;11.70;99.90;;;;;;5094883;28;20341;-81
2024/02/15 10:00:40;;;;;;;1.03;1.03;;;11.80;99.90;;;;;;5086545;28;20829;-82
2024/02/15 10:03:08;;;;;;;2.20;1.23;;;11.80;99.90;;;;;;5064695;28;20423;-82
2024/02/15 10:05:35;;;;;;;1.98;1.88;;;11.80;99.90;;;;;;5082803;28;20499;-82
2024/02/15 10:08:03;;;;;;;3.80;3.23;;;12.00;99.90;;;;;;5070681;28;20193;-81
2024/02/15 10:10:33;;;;;;;2.07;1.97;;;12.20;99.90;;;;;;5100242;28;20469;-80
2024/02/15 10:13:01;;;;;;;5.30;1.73;;;12.30;99.90;;;;;;5085981;28;20498;-81
2024/02/15 10:15:33;;;;;;;2.77;2.57;;;12.50;99.90;;;;;;5091577;28;20654;-81
2024/02/15 10:18:03;;;;;;;1.30;1.20;;;12.40;99.90;;;;;;5095425;28;20464;-81
2024/02/15 10:20:31;;;;;;;1.40;1.40;;;12.40;99.90;;;;;;5071755;28;20649;-82
2024/02/15 10:23:01;;;;;;;2.13;2.03;;;12.30;99.90;;;;;;5092544;28;20661;-82
2024/02/15 10:25:28;;;;;;;0.70;0.70;;;12.50;99.90;;;;;;5095882;28;20784;-82
2024/02/15 10:28:10;;;;;;;1.07;1.07;;;12.60;99.90;;;;;;5094241;28;20420;-83
2024/02/15 10:30:45;;;;;;;0.97;0.97;;;12.70;99.90;;;;;;5099885;28;20424;-80
2024/02/15 10:33:25;;;;;;;1.73;1.63;;;12.70;99.90;;;;;;5077074;28;20402;-81
2024/02/15 10:36:11;;;;;;;2.47;1.30;;;12.70;99.90;;;;;;5088922;28;20421;-82
2024/02/15 10:38:38;;;;;;;1.07;1.07;;;12.80;99.90;;;;;;5084022;28;20495;-82
2024/02/15 10:41:08;;;;;;;4.40;4.10;;;12.80;99.90;;;;;;5083341;28;20420;-81
2024/02/15 10:43:39;;;;;;;1.00;1.00;;;13.00;99.90;;;;;;5093640;28;20470;-82
2024/02/15 10:46:10;;;;;;;1.83;1.73;;;13.10;99.90;;;;;;5068734;28;20474;-81
2024/02/15 10:48:38;;;;;;;1.20;1.20;;;13.40;99.90;;;;;;5072330;28;20412;-81
2024/02/15 10:51:10;;;;;;;3.50;1.63;;;13.90;99.90;;;;;;5084282;28;20664;-82
2024/02/15 10:53:45;;;;;;;0.93;0.93;;;14.00;99.90;;;;;;5080873;28;20431;-82
2024/02/15 10:56:26;;;;;;;1.67;1.57;;;14.10;99.90;;;;;;5092820;28;20432;-80
2024/02/15 10:59:09;;;;;;;1.37;1.37;;;14.20;99.90;;;;;;5069019;28;20451;-82
2024/02/15 11:01:37;;;;;;;1.63;1.53;;;14.00;99.90;;;;;;5089056;28;20433;-81
2024/02/15 11:04:12;;;;;;;0.90;0.90;;;14.00;99.90;;;;;;5088771;28;20699;-81
2024/02/15 11:06:41;;;;;;;0.80;0.80;;;13.20;99.90;;;;;;5094710;28;20452;-81
2024/02/15 11:09:13;;;;;;;0.90;0.90;;;13.20;99.90;;;;;;5092105;28;20471;-83
2024/02/15 11:11:41;;;;;;;1.23;1.20;;;13.20;99.90;;;;;;5081873;28;20603;-82
2024/02/15 11:14:24;;;;;;;0.90;0.90;;;13.20;99.90;;;;;;5089148;28;20435;-81
2024/02/15 11:16:51;;;;;;;1.40;1.40;;;13.50;99.90;;;;;;5066542;28;20423;-82
2024/02/15 11:19:40;;;;;;;0.90;0.90;;;13.10;99.90;;;;;;5101722;28;20410;-82
2024/02/15 11:22:16;;;;;;;0.77;0.77;;;13.30;99.90;;;;;;5094439;28;20492;-80
2024/02/15 11:24:52;;;;;;;0.90;0.90;;;13.50;99.90;;;;;;5092243;28;20438;-81
2024/02/15 11:27:27;;;;;;;4.77;2.50;;;13.60;99.90;;;;;;5075454;28;20437;-81
2024/02/15 11:29:58;;;;;;;0.90;0.90;;;14.00;99.90;;;;;;5094013;28;20536;-82
2024/02/15 11:32:39;;;;;;;1.10;1.10;;;14.10;99.90;;;;;;5100119;28;20462;-81
2024/02/15 11:35:11;;;;;;;0.70;0.70;;;14.00;99.90;;;;;;5071443;28;20448;-79
2024/02/15 11:37:52;;;;;;;0.97;0.97;;;13.80;99.90;;;;;;5085597;28;20414;-81
2024/02/15 11:40:23;;;;;;;0.60;0.60;;;14.00;99.90;;;;;;5088306;28;20402;-81
2024/02/15 11:42:53;;;;;;;0.70;0.70;;;13.50;99.90;;;;;;5068585;28;20452;-80
2024/02/15 11:45:20;;;;;;;0.80;0.80;;;13.40;99.90;;;;;;5087136;28;20413;-82
2024/02/15 11:47:53;;;;;;;3.83;3.63;;;13.50;99.90;;;;;;5073543;28;20412;-81
2024/02/15 11:50:22;;;;;;;0.90;0.90;;;13.30;99.90;;;;;;5071377;28;20442;-80
2024/02/15 11:52:51;;;;;;;1.37;1.37;;;13.40;99.90;;;;;;5085202;28;20433;-81
2024/02/15 11:55:22;;;;;;;1.60;1.33;;;13.30;99.90;;;;;;5091278;28;20461;-81
2024/02/15 11:58:02;;;;;;;0.70;0.70;;;13.60;99.90;;;;;;5089606;28;20423;-81
2024/02/15 12:20:06;;;;;;;1.03;1.03;;;14.10;99.90;;;;;;5092080;28;20405;-82
2024/02/15 12:22:46;;;;;;;0.97;0.97;;;14.30;99.90;;;;;;5086342;28;20428;-82
2024/02/15 12:25:16;;;;;;;1.10;1.10;;;14.20;99.90;;;;;;5090205;28;20458;-82
2024/02/15 12:27:53;;;;;;;1.50;1.47;;;14.40;99.90;;;;;;5084642;28;20446;-81
2024/02/15 12:30:21;;;;;;;2.33;2.00;;;14.40;99.90;;;;;;5082895;28;20409;-81
2024/02/15 12:32:52;;;;;;;1.23;1.23;;;14.10;99.90;;;;;;5075105;28;20457;-80
2024/02/15 12:35:20;;;;;;;1.33;1.30;;;14.20;99.90;;;;;;5083942;28;20735;-81
2024/02/15 12:37:53;;;;;;;1.17;1.17;;;14.20;99.90;;;;;;5077289;28;20649;-82
2024/02/15 12:40:22;;;;;;;1.10;1.10;;;14.00;99.90;;;;;;5086930;28;20447;-81
2024/02/15 12:42:49;;;;;;;0.70;0.70;;;14.30;99.90;;;;;;5083864;28;20768;-81
2024/02/15 12:45:21;;;;;;;1.17;1.17;;;14.30;99.90;;;;;;5073395;28;20410;-81
2024/02/15 12:47:51;;;;;;;1.57;1.13;;;14.40;99.90;;;;;;5078071;28;20471;-82
2024/02/15 12:50:19;;;;;;;0.90;0.90;;;14.40;99.90;;;;;;5087088;28;20761;-80
2024/02/15 12:52:47;;;;;;;0.60;0.60;;;14.50;99.90;;;;;;5094119;28;20491;-80
2024/02/15 12:55:19;;;;;;;0.80;0.80;;;14.90;99.90;;;;;;5092818;28;20715;-81
2024/02/15 12:57:56;;;;;;;1.40;1.30;;;15.00;99.90;;;;;;5083884;28;20425;-81
2024/02/15 13:00:31;;;;;;;0.67;0.67;;;14.70;99.90;;;;;;5076167;28;20407;-81
2024/02/15 13:03:03;;;;;;;0.70;0.70;;;14.50;99.90;;;;;;5084719;28;20405;-82
2024/02/15 13:05:31;;;;;;;9.53;1.87;;;14.40;99.90;;;;;;5077902;28;20525;-82
2024/02/15 13:08:01;;;;;;;1.17;0.90;;;14.40;99.90;;;;;;5091508;28;20603;-82
2024/02/15 13:10:31;;;;;;;1.00;1.00;;;14.30;99.90;;;;;;5075627;28;20731;-81
2024/02/15 13:12:58;;;;;;;6.50;1.27;;;14.30;99.90;;;;;;5089309;28;20621;-81
2024/02/15 13:15:32;;;;;;;1.93;1.83;;;14.60;99.90;;;;;;5070164;28;20431;-81
2024/02/15 13:18:04;;;;;;;1.20;1.20;;;14.70;99.90;;;;;;5093052;28;20413;-80
2024/02/15 13:20:32;;;;;;;0.80;0.80;;;14.40;99.90;;;;;;5088479;28;20760;-82
2024/02/15 13:23:08;;;;;;;1.57;1.50;;;14.40;99.90;;;;;;5086302;28;20485;-82
2024/02/15 13:25:42;;;;;;;1.87;1.77;;;14.40;99.90;;;;;;5099260;28;20439;-81
2024/02/15 13:28:13;;;;;;;1.43;1.37;;;14.60;99.90;;;;;;5092578;28;20654;-81
2024/02/15 13:30:43;;;;;;;2.20;1.47;;;14.50;99.90;;;;;;5092523;28;20508;-82
2024/02/15 13:33:11;;;;;;;0.83;0.83;;;14.40;99.90;;;;;;5084100;28;20415;-82
2024/02/15 13:35:38;;;;;;;1.60;1.50;;;14.40;99.90;;;;;;5062935;28;20445;-83
2024/02/15 13:38:08;;;;;;;2.10;2.00;;;14.40;99.90;;;;;;5081198;28;20486;-82
2024/02/15 13:40:35;;;;;;;1.27;1.27;;;14.30;99.90;;;;;;5081625;28;20432;-82
2024/02/15 13:43:04;;;;;;;0.83;0.83;;;14.30;99.90;;;;;;5081500;28;20415;-82
2024/02/15 13:45:39;;;;;;;2.23;1.33;;;14.30;99.90;;;;;;5083624;28;20559;-82
2024/02/15 13:48:08;;;;;;;2.10;1.90;;;14.30;99.90;;;;;;5068220;28;20439;-81
2024/02/15 13:50:38;;;;;;;2.03;1.93;;;14.40;99.90;;;;;;5085295;28;20441;-82
2024/02/15 13:53:08;;;;;;;0.70;0.70;;;14.20;99.90;;;;;;5088058;28;20443;-83
2024/02/15 13:55:37;;;;;;;0.80;0.80;;;14.30;99.90;;;;;;5090385;28;20455;-82
2024/02/15 13:58:05;;;;;;;0.70;0.70;;;14.20;99.90;;;;;;5065552;28;20440;-82
2024/02/15 14:00:36;;;;;;;1.37;1.37;;;14.20;99.90;;;;;;5095386;28;20418;-81